• Join FlightAware (Why Join?)
  • Login
  • US Flag 
11:39AM EST


 

Airport Tracker/Info


-or-


 

Live Flight TrackerFlight Track Log ✈ FLG4262 ✈ 14-Apr-2014 ✈ KBGM - KDTW

Flight Track Log - Related Links

Times and Time Zones

All times are in EDT time to prevent confusion due to time zone crossing. See the FLG4262 flight status page for this flight to view local times or setup timezone preferences in your user account.

Time Position Orientation Groundspeed Altitude Reporting Facility
EDT Latitude Longitude Course Direction KTS MPH feet Rate Location/Type
05:28PM 42.1750 -75.7992 270° West 159 183 9,000  Level New York Center
05:54PM 42.1758 -76.0650 278° West 202 232 5,800 26 Descending New York Center
05:55PM 42.2528 -79.1490 271° West  Level Estimated
05:55PM 42.2136 -76.1717 296° West 260 299 9,700  Level Cleveland Center
05:56PM 42.2539 -79.2792 271° West  Level Estimated
05:56PM 42.2361 -76.2644 288° West 259 298 11,800  Level Cleveland Center
05:57PM 42.2548 -79.4093 271° West  Level Estimated
05:57PM 42.2425 -76.3614 275° West 259 298 14,100  Level Cleveland Center
05:58PM 42.2255 -76.0776 285° West  Level FlightAware Approximate
05:58PM 42.2475 -76.4567 274° West 260 299 15,900  Level Cleveland Center
05:59PM 42.2389 -76.5789 265° West 269 310 17,500 1,632 Climbing Cleveland Center
06:00PM 42.2369 -76.6883 269° West 286 329 19,300 1,584 Climbing Cleveland Center
06:01PM 42.2536 -76.8000 281° West 301 346 20,800 1,210 Climbing Cleveland Center
06:02PM 42.2897 -76.9097 294° West 316 364 21,800 968 Climbing Cleveland Center
06:03PM 42.3286 -77.0239 295° West 330 380 22,800 726 Climbing Cleveland Center
06:04PM 42.3708 -77.1417 296° West 343 395 23,300 532 Climbing Cleveland Center
06:05PM 42.4278 -77.2894 298° West 368 423 23,900 532 Climbing Cleveland Center
06:06PM 42.4761 -77.4169 297° West 375 432 24,400 629 Climbing Cleveland Center
06:07PM 42.5258 -77.5483 297° West 381 438 25,200 774 Climbing Cleveland Center
06:08PM 42.5742 -77.6764 297° West 383 441 26,000 387 Climbing Cleveland Center
06:09PM 42.6256 -77.8161 297° West 381 438 26,000  Level Cleveland Center
06:10PM 42.6714 -77.9372 297° West 380 437 26,000  Level Cleveland Center
06:11PM 42.7186 -78.0672 296° West 381 438 26,000  Level Cleveland Center
06:12PM 42.7647 -78.1922 297° West 371 427 26,000  Level Cleveland Center
06:13PM 42.8203 -78.3475 296° West 381 438 26,000 -532 Level Cleveland Center
06:14PM 42.8672 -78.4772 296° West 385 443 24,900 -1,258 Descending Cleveland Center
06:16PM 42.9139 -78.6033 297° West 377 434 23,400 -726 Descending Cleveland Center
06:17PM 42.9203 -78.7261 274° West 332 382 23,400 290 Level Cleveland Center
06:18PM 42.9011 -78.8486 258° West 331 381 24,000 290 Climbing Cleveland Center
06:19PM 42.8817 -78.9756 258° West 344 396 24,000  Level Cleveland Center
06:20PM 42.8586 -79.1322 259° West 353 406 24,000  Level Cleveland Center
06:21PM 42.8392 -79.2619 258° West 352 405 24,000  Level Cleveland Center
06:22PM 42.8197 -79.3914 258° West 351 404 24,000  Level Cleveland Center
06:23PM 42.8006 -79.5189 258° West 347 399 24,000  Level Cleveland Center
06:24PM 42.7822 -79.6444 259° West 343 395 24,000  Level Cleveland Center
06:25PM 42.7594 -79.7919 258° West 337 388 24,000  Level Cleveland Center
06:26PM 42.7486 -79.9178 263° West 335 386 24,000  Level Cleveland Center
06:27PM 42.7436 -80.0383 267° West 343 395 24,000  Level Cleveland Center
06:28PM 42.7383 -80.1675 267° West 341 392 24,000  Level Cleveland Center
06:29PM 42.7317 -80.3164 267° West 339 390 24,000  Level Cleveland Center
06:30PM 42.7272 -80.4422 267° West 334 384 24,000  Level Cleveland Center
06:31PM 42.7214 -80.5681 266° West 334 384 24,000  Level Cleveland Center
06:32PM 42.7158 -80.6947 267° West 334 384 24,000  Level Cleveland Center
06:33PM 42.7103 -80.8233 267° West 334 384 24,000  Level Cleveland Center
06:34PM 42.7011 -80.9519 265° West 336 387 24,000  Level Cleveland Center
06:35PM 42.6831 -81.0964 260° West 335 386 24,000  Level Cleveland Center
06:36PM 42.6692 -81.2242 262° West 336 387 24,000  Level Cleveland Center
06:37PM 42.6536 -81.3508 261° West 336 387 24,000  Level Cleveland Center
06:38PM 42.6386 -81.4778 261° West 336 387 24,000  Level Cleveland Center
06:39PM 42.6244 -81.6047 261° West 337 388 24,000 -194 Level Cleveland Center
06:40PM 42.6092 -81.7322 261° West 337 388 23,600 -1,152 Descending Cleveland Center
06:41PM 42.5931 -81.8692 261° West 337 388 21,600 -1,824 Descending Cleveland Center
06:42PM 42.5792 -81.9892 261° West 327 376 19,800 -1,839 Descending Cleveland Center
06:43PM 42.5642 -82.1042 260° West 316 364 17,800 -1,839 Descending Cleveland Center
06:45PM 42.5514 -82.2172 261° West 309 356 16,000 -1,935 Descending Cleveland Center
06:46PM 42.5336 -82.3444 259° West 294 338 13,800 -2,018 Descending Cleveland Center
06:46PM 42.5242 -82.4325 262° West 259 298 12,200 -1,645 Descending Cleveland Center
06:47PM 42.5225 -82.4422 257° West 271 312 12,100 -218 Descending Cleveland Center
06:47PM 42.5144 -82.5133 261° West 241 277 12,000 -97 Descending Cleveland Center
06:48PM 42.5103 -82.5311 252° West 248 285 12,000  Level Cleveland Center
06:49PM 42.4850 -82.6119 247° West 237 273 12,000  Level Cleveland Center
06:49PM 42.4606 -82.6819 245° Southwest 240 276 12,000  Level Cleveland Center
06:50PM 42.4558 -82.6933 241° Southwest 236 272 12,000  Level Cleveland Center
06:50PM 42.4317 -82.7628 245° Southwest 242 278 12,000  Level Cleveland Center
06:51PM 42.4272 -82.7761 246° West 239 275 12,000  Level Cleveland Center
06:51PM 42.4050 -82.8414 245° Southwest 193 222 12,000  Level Cleveland Center
06:52PM 42.3964 -82.8597 238° Southwest 206 237 12,000  Level Cleveland Center
06:52PM 42.3817 -82.9031 245° Southwest 188 216 12,000  Level Cleveland Center
06:53PM 42.3744 -82.9236 245° Southwest 188 216 12,000  Level Cleveland Center
06:53PM 42.3558 -82.9703 242° Southwest 193 222 12,000  Level Cleveland Center
06:54PM 42.3506 -82.9886 249° West 190 219 12,000  Level Cleveland Center
06:55PM 42.3314 -83.0431 245° Southwest 195 224 12,000  Level Cleveland Center
06:55PM 42.3267 -83.0544 241° Southwest 193 222 12,000  Level Cleveland Center
06:56PM 42.3028 -83.1183 243° Southwest 197 227 12,000  Level Cleveland Center
06:56PM 42.3031 -83.1214 277° West 194 223 12,000  Level Cleveland Center
06:57PM 42.2719 -83.1647 226° Southwest 199 229 12,000 -387 Level Cleveland Center
06:57PM 42.2653 -83.1683 202° Southwest 193 222 11,600 -2,164 Descending Cleveland Center
06:58PM 42.2214 -83.1944 204° Southwest 195 224 9,800 -2,323 Descending Cleveland Center
06:58PM 42.2050 -83.2028 201° Southwest 197 227 9,200 -1,855 Descending Cleveland Center
06:59PM 42.1778 -83.2194 204° Southwest 189 217 8,100 -1,645 Descending Cleveland Center
06:59PM 42.1586 -83.2294 201° Southwest 192 221 7,500 -1,082 Descending Cleveland Center
07:00PM 42.1292 -83.2494 207° Southwest 185 213 7,000 -484 Descending Cleveland Center
07:00PM 42.1114 -83.2575 199° South 190 219 7,000  Level Cleveland Center
07:01PM 42.0831 -83.2767 207° Southwest 182 209 7,000  Level Cleveland Center
07:01PM 42.0667 -83.2883 208° Southwest 184 212 7,000 -98 Level Cleveland Center
07:02PM 42.0386 -83.3097 210° Southwest 182 209 6,900 -484 Descending Cleveland Center
07:02PM 42.0214 -83.3222 208° Southwest 184 212 6,500 -885 Descending Cleveland Center
07:03PM 41.9919 -83.3453 210° Southwest 184 212 6,000 -774 Descending Cleveland Center
07:03PM 41.9683 -83.3614 207° Southwest 184 212 5,700 -873 Descending Cleveland Center
07:03PM 41.9519 -83.3736 209° Southwest 190 219 5,200 -1,452 Descending Cleveland Center
07:04PM 41.9278 -83.3939 212° Southwest 186 214 4,200 -1,770 Descending Cleveland Center
07:04PM 41.9158 -83.4331 248° West 211 243 3,400 -1,161 Descending Cleveland Center
07:05PM 41.9133 -83.4703 265° West 210 242 3,000 -329 Descending Cleveland Center
07:06PM 41.9444 -83.4958 329° Northwest 207 238 3,000  Level Cleveland Center
07:06PM 41.9722 -83.4947 North 209 241 3,000  Level Cleveland Center
07:07PM 41.9969 -83.4950 360° North 190 219 3,000  Level Cleveland Center
07:07PM 42.0222 -83.4783 26° Northeast 197 227 3,000  Level Cleveland Center
07:08PM 42.0389 -83.4672 26° Northeast 181 208 3,000  Level Cleveland Center
07:08PM 42.0664 -83.4469 29° Northeast 185 213 3,000  Level Cleveland Center
07:09PM 42.0833 -83.4342 29° Northeast 180 207 3,000 -290 Level Cleveland Center
07:09PM 42.1094 -83.4147 29° Northeast 182 209 2,700 -689 Descending Cleveland Center
07:10PM 42.1256 -83.4036 27° Northeast 171 197 2,300 -871 Descending Cleveland Center
07:10PM 42.1492 -83.3858 29° Northeast 175 201 1,800 -722 Descending Cleveland Center
07:11PM 42.1825 -83.3614 29° Northeast 153 176 1,000 -774 Descending Cleveland Center